Time;durP1;ratioP1;P1;durP2;ratioP2;P2;SDS_P1;SDS_P2;PMS_P1;PMS_P2;Temp;Humidity;BMP_temperature;BMP_pressure;BME280_temperature;BME280_humidity;BME280_pressure;Samples;Min_cycle;Max_cycle;Signal;HPM_P1;HPM_P2
2022/10/10 00:01:15;;;;;;;17.53;12.30;;;8.70;99.90;;;;;;5024810;28;20461;-66
2022/10/10 00:03:42;;;;;;;12.97;11.83;;;8.70;99.90;;;;;;5024253;28;20536;-67
2022/10/10 00:06:09;;;;;;;12.47;11.40;;;8.60;99.90;;;;;;5027737;28;20460;-67
2022/10/10 00:08:36;;;;;;;12.20;11.07;;;8.60;99.90;;;;;;5028344;28;20484;-66
2022/10/10 00:11:05;;;;;;;15.20;14.00;;;8.60;99.90;;;;;;5024694;28;20496;-69
2022/10/10 00:13:34;;;;;;;13.20;12.17;;;8.60;99.90;;;;;;5024341;28;20901;-67
2022/10/10 00:16:01;;;;;;;13.40;11.73;;;8.60;99.90;;;;;;5026288;28;20829;-66
2022/10/10 00:18:29;;;;;;;13.67;12.13;;;8.60;99.90;;;;;;5019132;28;20456;-66
2022/10/10 00:20:55;;;;;;;13.00;11.80;;;8.60;99.90;;;;;;5019651;28;20453;-69
2022/10/10 00:23:22;;;;;;;12.70;11.53;;;8.70;99.90;;;;;;5028100;28;20537;-66
2022/10/10 00:25:50;;;;;;;13.23;11.90;;;8.70;99.90;;;;;;5023913;28;20478;-67
2022/10/10 00:28:18;;;;;;;13.37;11.90;;;8.60;99.90;;;;;;5025843;28;20489;-66
2022/10/10 00:30:46;;;;;;;12.90;11.80;;;8.60;99.90;;;;;;5025570;28;20499;-67
2022/10/10 00:33:13;;;;;;;12.97;11.80;;;8.60;99.90;;;;;;5027718;28;20454;-67
2022/10/10 00:35:41;;;;;;;12.03;11.13;;;8.70;99.90;;;;;;5026762;28;20474;-67
2022/10/10 00:38:08;;;;;;;12.77;11.80;;;8.60;99.90;;;;;;5022851;28;20472;-66
2022/10/10 00:40:35;;;;;;;13.10;12.10;;;8.60;99.90;;;;;;5018545;28;20469;-67
2022/10/10 00:43:01;;;;;;;13.37;12.37;;;8.60;99.90;;;;;;5027793;28;20461;-70
2022/10/10 00:45:32;;;;;;;14.90;12.87;;;8.60;99.90;;;;;;5025250;28;20467;-67
2022/10/10 00:48:04;;;;;;;12.20;11.40;;;8.50;99.90;;;;;;5027264;28;20879;-69
2022/10/10 00:50:33;;;;;;;12.43;11.53;;;8.50;99.90;;;;;;5024075;28;20479;-66
2022/10/10 00:53:01;;;;;;;13.40;12.30;;;8.50;99.90;;;;;;5023523;28;20460;-69
2022/10/10 00:55:28;;;;;;;12.80;11.90;;;8.40;99.90;;;;;;5020966;28;20986;-67
2022/10/10 00:57:56;;;;;;;13.33;12.00;;;8.40;99.90;;;;;;5023220;28;20484;-67
2022/10/10 01:00:23;;;;;;;13.20;11.97;;;8.40;99.90;;;;;;5023868;28;20959;-67
2022/10/10 01:02:51;;;;;;;12.40;11.57;;;8.40;99.90;;;;;;5023454;28;20474;-66
2022/10/10 01:05:20;;;;;;;12.83;11.93;;;8.40;99.90;;;;;;5021990;28;20479;-67
2022/10/10 01:07:47;;;;;;;15.63;11.50;;;8.40;99.90;;;;;;5025297;28;20469;-68
2022/10/10 01:10:17;;;;;;;12.73;11.07;;;8.40;99.90;;;;;;5016972;28;20551;-70
2022/10/10 01:12:55;;;;;;;14.80;11.73;;;8.40;99.90;;;;;;5023264;28;20464;-69
2022/10/10 01:15:27;;;;;;;19.70;12.57;;;8.50;99.90;;;;;;5022951;28;20469;-68
2022/10/10 01:18:02;;;;;;;13.33;12.20;;;8.50;99.90;;;;;;5023287;28;20468;-66
2022/10/10 01:20:57;;;;;;;14.50;13.00;;;8.50;99.90;;;;;;5021363;28;20487;-67
2022/10/10 01:23:49;;;;;;;13.23;11.30;;;8.50;99.90;;;;;;5023887;28;20469;-67
2022/10/10 01:26:43;;;;;;;12.77;11.87;;;8.50;99.90;;;;;;5022138;28;20465;-66
2022/10/10 01:29:16;;;;;;;14.23;11.57;;;8.40;99.90;;;;;;5020266;28;20488;-67
2022/10/10 01:31:48;;;;;;;12.37;11.47;;;8.40;99.90;;;;;;5026548;28;20492;-66
2022/10/10 01:34:23;;;;;;;12.10;11.20;;;8.40;99.90;;;;;;5025536;28;20460;-66
2022/10/10 01:36:58;;;;;;;12.77;11.47;;;8.40;99.90;;;;;;5020443;28;20479;-66
2022/10/10 01:39:35;;;;;;;12.33;11.40;;;8.40;99.90;;;;;;5022714;28;20530;-67
2022/10/10 01:42:06;;;;;;;12.37;11.17;;;8.40;99.90;;;;;;5022887;28;20467;-68
2022/10/10 01:44:36;;;;;;;12.77;11.37;;;8.40;99.90;;;;;;5023702;28;20464;-66
2022/10/10 01:47:03;;;;;;;12.40;11.37;;;8.30;99.90;;;;;;5020933;28;20465;-66
2022/10/10 01:49:33;;;;;;;14.27;11.80;;;8.30;99.90;;;;;;5022525;28;20488;-67
2022/10/10 01:52:14;;;;;;;12.10;11.40;;;8.30;99.90;;;;;;5017655;28;20498;-66
2022/10/10 01:54:51;;;;;;;13.10;11.80;;;8.30;99.90;;;;;;5020309;28;20471;-68
2022/10/10 01:57:24;;;;;;;13.03;12.13;;;8.30;99.90;;;;;;5018414;28;20466;-67
2022/10/10 02:00:05;;;;;;;11.50;10.70;;;8.30;99.90;;;;;;5022013;28;20461;-67
2022/10/10 02:02:47;;;;;;;12.13;11.23;;;8.30;99.90;;;;;;5020596;28;20916;-70
2022/10/10 02:05:19;;;;;;;12.50;11.50;;;8.40;99.90;;;;;;5019018;28;20465;-66
2022/10/10 02:07:53;;;;;;;12.17;11.17;;;8.40;99.90;;;;;;5020933;28;20471;-66
2022/10/10 02:10:24;;;;;;;12.23;11.30;;;8.40;99.90;;;;;;5023139;28;20571;-67
2022/10/10 02:12:52;;;;;;;11.10;10.30;;;8.40;99.90;;;;;;5022214;28;20854;-69
2022/10/10 02:15:23;;;;;;;12.60;11.40;;;8.30;99.90;;;;;;5023898;28;20464;-67
2022/10/10 02:17:51;;;;;;;11.77;10.50;;;8.40;99.90;;;;;;5023213;28;20476;-68
2022/10/10 02:20:20;;;;;;;16.60;11.37;;;8.30;99.90;;;;;;5024590;28;20566;-66
2022/10/10 02:22:49;;;;;;;12.30;11.20;;;8.30;99.90;;;;;;5021729;28;20456;-66
2022/10/10 02:25:21;;;;;;;12.17;11.17;;;8.30;99.90;;;;;;5027015;28;20461;-68
2022/10/10 02:27:54;;;;;;;11.13;10.43;;;8.30;99.90;;;;;;5022523;28;20492;-67
2022/10/10 02:30:23;;;;;;;12.17;11.20;;;8.30;99.90;;;;;;5021763;28;20467;-65
2022/10/10 02:32:55;;;;;;;12.43;11.23;;;8.30;99.90;;;;;;5022094;28;20496;-67
2022/10/10 02:35:25;;;;;;;12.87;11.10;;;8.20;99.90;;;;;;5021960;28;21007;-70
2022/10/10 02:37:54;;;;;;;12.77;11.67;;;8.20;99.90;;;;;;5015092;28;20489;-70
2022/10/10 02:40:24;;;;;;;12.33;11.20;;;8.20;99.90;;;;;;5023614;28;20822;-66
2022/10/10 02:42:53;;;;;;;11.83;10.77;;;8.20;99.90;;;;;;5022590;28;20477;-66
2022/10/10 02:45:23;;;;;;;12.17;11.07;;;8.20;99.90;;;;;;5023679;28;20525;-66
2022/10/10 02:47:51;;;;;;;11.67;10.80;;;8.10;99.90;;;;;;5022676;28;20502;-67
2022/10/10 02:50:18;;;;;;;12.67;11.50;;;8.20;99.90;;;;;;5025995;28;20947;-67
2022/10/10 02:52:45;;;;;;;11.27;10.10;;;8.10;99.90;;;;;;5018898;28;20826;-67
2022/10/10 02:55:12;;;;;;;12.23;11.00;;;8.10;99.90;;;;;;5019692;28;21045;-67
2022/10/10 02:57:39;;;;;;;11.63;10.53;;;8.20;99.90;;;;;;5019363;28;20472;-67
2022/10/10 03:00:07;;;;;;;13.53;12.13;;;8.20;99.90;;;;;;5016373;28;20461;-67
2022/10/10 03:02:35;;;;;;;12.07;10.87;;;8.10;99.90;;;;;;5029060;28;20468;-69
2022/10/10 03:05:02;;;;;;;15.20;11.10;;;8.10;99.90;;;;;;5025452;28;20871;-67
2022/10/10 03:07:29;;;;;;;14.97;11.13;;;8.10;99.90;;;;;;5024500;28;20881;-66
2022/10/10 03:09:56;;;;;;;10.83;10.13;;;8.10;99.90;;;;;;5024798;28;20468;-66
2022/10/10 03:12:24;;;;;;;11.90;11.00;;;8.10;99.90;;;;;;5024607;28;20534;-67
2022/10/10 03:14:50;;;;;;;11.23;10.53;;;8.10;99.90;;;;;;5023265;28;20476;-66
2022/10/10 03:17:18;;;;;;;13.13;12.07;;;8.10;99.90;;;;;;5020751;28;20465;-67
2022/10/10 03:19:46;;;;;;;12.97;11.57;;;8.10;99.90;;;;;;5020887;28;20487;-69
2022/10/10 03:22:14;;;;;;;11.83;10.73;;;8.10;99.90;;;;;;5021798;28;20910;-69
2022/10/10 03:24:40;;;;;;;12.47;11.43;;;8.10;99.90;;;;;;5024645;28;20483;-67
2022/10/10 03:27:07;;;;;;;13.40;11.80;;;8.10;99.90;;;;;;5024253;28;20461;-69
2022/10/10 03:29:34;;;;;;;12.60;11.43;;;8.10;99.90;;;;;;5027616;28;20492;-69
2022/10/10 03:32:00;;;;;;;12.37;11.23;;;8.10;99.90;;;;;;5024708;28;20487;-67
2022/10/10 03:34:28;;;;;;;16.03;11.67;;;8.20;99.90;;;;;;5026303;28;20836;-67
2022/10/10 03:36:56;;;;;;;11.43;10.63;;;8.20;99.90;;;;;;5023841;28;20463;-66
2022/10/10 03:39:24;;;;;;;13.60;11.00;;;8.20;99.90;;;;;;5025373;28;20471;-67
2022/10/10 03:41:50;;;;;;;11.30;10.60;;;8.20;99.90;;;;;;5025718;28;20471;-67
2022/10/10 03:44:17;;;;;;;12.80;11.60;;;8.20;99.90;;;;;;5028581;28;20878;-67
2022/10/10 03:46:44;;;;;;;16.07;13.67;;;8.20;99.90;;;;;;5025632;28;20564;-67
2022/10/10 03:49:11;;;;;;;11.97;11.17;;;8.10;99.90;;;;;;5022933;28;20834;-67
2022/10/10 03:51:39;;;;;;;13.10;12.00;;;8.10;99.90;;;;;;5025366;28;20480;-67
2022/10/10 03:54:07;;;;;;;11.47;10.67;;;8.10;99.90;;;;;;5018210;28;21017;-67
2022/10/10 03:56:34;;;;;;;14.57;12.13;;;8.10;99.90;;;;;;5026866;28;20473;-66
2022/10/10 03:59:02;;;;;;;18.00;11.53;;;8.10;99.90;;;;;;5027457;28;20460;-67
2022/10/10 04:01:29;;;;;;;14.60;11.80;;;8.10;99.90;;;;;;5026208;28;20510;-67
2022/10/10 04:03:57;;;;;;;12.10;11.20;;;8.10;99.90;;;;;;5021079;28;20547;-67
2022/10/10 04:06:24;;;;;;;11.77;10.87;;;8.10;99.90;;;;;;5021428;28;20951;-66
2022/10/10 04:08:51;;;;;;;12.47;11.37;;;8.10;99.90;;;;;;5020612;28;20460;-67
2022/10/10 04:11:19;;;;;;;12.10;11.40;;;8.00;99.90;;;;;;5024181;28;20457;-67
2022/10/10 04:13:46;;;;;;;11.90;11.20;;;8.00;99.90;;;;;;5023359;28;20471;-67
2022/10/10 04:16:12;;;;;;;13.63;12.40;;;7.90;99.90;;;;;;5022609;28;20467;-67
2022/10/10 04:18:39;;;;;;;12.93;12.03;;;7.90;99.90;;;;;;5019032;28;21002;-67
2022/10/10 04:21:07;;;;;;;15.23;12.60;;;7.90;99.90;;;;;;5018286;28;20486;-68
2022/10/10 04:23:34;;;;;;;12.90;11.70;;;7.90;99.90;;;;;;5026800;28;20548;-66
2022/10/10 04:26:01;;;;;;;18.13;12.67;;;7.90;99.90;;;;;;5024103;28;20468;-66
2022/10/10 04:28:29;;;;;;;12.97;11.83;;;7.90;99.90;;;;;;5022149;28;20843;-67
2022/10/10 04:30:55;;;;;;;12.77;11.70;;;7.90;99.90;;;;;;5024581;28;20468;-67
2022/10/10 04:33:22;;;;;;;13.03;12.03;;;8.00;99.90;;;;;;5022908;28;20588;-67
2022/10/10 04:35:50;;;;;;;13.83;12.63;;;7.90;99.90;;;;;;5026162;28;20460;-67
2022/10/10 04:38:20;;;;;;;13.07;12.00;;;7.90;99.90;;;;;;5020211;28;20473;-67
2022/10/10 04:40:49;;;;;;;15.13;12.00;;;7.90;99.90;;;;;;5022064;28;20464;-68
2022/10/10 04:43:17;;;;;;;13.63;12.60;;;7.90;99.90;;;;;;5020006;28;20548;-68
2022/10/10 04:45:45;;;;;;;20.27;12.23;;;7.90;99.90;;;;;;5023223;28;20583;-70
2022/10/10 04:48:12;;;;;;;13.70;12.30;;;7.90;99.90;;;;;;5024472;28;20465;-67
2022/10/10 04:50:40;;;;;;;14.07;12.87;;;7.90;99.90;;;;;;5025508;28;20492;-66
2022/10/10 04:53:07;;;;;;;13.10;12.10;;;7.80;99.90;;;;;;5023435;28;21031;-66
2022/10/10 04:55:34;;;;;;;14.53;13.03;;;7.80;99.90;;;;;;5021426;28;20474;-69
2022/10/10 04:58:00;;;;;;;17.87;12.50;;;7.80;99.90;;;;;;5016610;28;21053;-70
2022/10/10 05:00:27;;;;;;;14.77;12.80;;;7.80;99.90;;;;;;5019654;28;20472;-70
2022/10/10 05:02:56;;;;;;;13.10;11.90;;;7.90;99.90;;;;;;5013856;28;20462;-67
2022/10/10 05:05:22;;;;;;;19.07;12.47;;;7.90;99.90;;;;;;5024277;28;20962;-68
2022/10/10 05:07:49;;;;;;;13.90;12.70;;;7.80;99.90;;;;;;5018899;28;20472;-70
2022/10/10 05:10:18;;;;;;;20.20;14.37;;;7.80;99.90;;;;;;5019538;28;20457;-70
2022/10/10 05:12:45;;;;;;;14.80;13.60;;;7.70;99.90;;;;;;5024122;28;21041;-69
2022/10/10 05:15:11;;;;;;;16.63;14.97;;;7.60;99.90;;;;;;5018727;28;20476;-67
2022/10/10 05:17:38;;;;;;;18.63;14.07;;;7.60;99.90;;;;;;5020589;28;20449;-67
2022/10/10 05:20:07;;;;;;;14.90;13.50;;;7.60;99.90;;;;;;5025394;28;20573;-68
2022/10/10 05:22:34;;;;;;;18.63;13.50;;;7.50;99.90;;;;;;5021764;28;20572;-66
2022/10/10 05:25:01;;;;;;;14.10;12.70;;;7.50;99.90;;;;;;5021001;28;20508;-69
2022/10/10 05:27:28;;;;;;;13.90;12.60;;;7.50;99.90;;;;;;5020037;28;20984;-67
2022/10/10 05:29:55;;;;;;;14.70;13.27;;;7.50;99.90;;;;;;5015952;28;20493;-68
2022/10/10 05:32:22;;;;;;;13.50;12.30;;;7.40;99.90;;;;;;5024247;28;20588;-68
2022/10/10 05:34:49;;;;;;;14.27;13.17;;;7.40;99.90;;;;;;5016658;28;20537;-69
2022/10/10 05:37:18;;;;;;;15.83;12.80;;;7.40;99.90;;;;;;5020277;28;20472;-69
2022/10/10 05:39:44;;;;;;;16.13;12.03;;;7.40;99.90;;;;;;5020332;28;20468;-69
2022/10/10 05:42:12;;;;;;;14.67;13.37;;;7.40;99.90;;;;;;5018537;28;20461;-67
2022/10/10 05:44:39;;;;;;;14.07;12.73;;;7.40;99.90;;;;;;5019909;28;20478;-67
2022/10/10 05:47:06;;;;;;;16.40;13.00;;;7.40;99.90;;;;;;5017741;28;21080;-67
2022/10/10 05:49:33;;;;;;;13.20;12.13;;;7.40;99.90;;;;;;5020674;28;20458;-68
2022/10/10 05:52:01;;;;;;;18.17;12.43;;;7.40;99.90;;;;;;5021482;28;20488;-67
2022/10/10 05:54:29;;;;;;;14.43;12.90;;;7.40;99.90;;;;;;5022738;28;20993;-67
2022/10/10 05:56:56;;;;;;;19.27;12.50;;;7.40;99.90;;;;;;5019910;28;20471;-68
2022/10/10 05:59:22;;;;;;;16.43;12.43;;;7.40;99.90;;;;;;5020773;28;20465;-68
2022/10/10 06:02:04;;;;;;;13.20;12.03;;;7.40;99.90;;;;;;5016594;28;20469;-70
2022/10/10 06:04:31;;;;;;;15.07;13.67;;;7.40;99.90;;;;;;5017784;28;20467;-70
2022/10/10 06:06:58;;;;;;;14.50;12.40;;;7.50;99.90;;;;;;5018198;28;20452;-67
2022/10/10 06:09:24;;;;;;;15.40;14.17;;;7.50;99.90;;;;;;5021511;28;20959;-69
2022/10/10 06:11:53;;;;;;;21.50;15.53;;;7.50;99.90;;;;;;5018935;28;20460;-68
2022/10/10 06:14:20;;;;;;;18.40;14.80;;;7.50;99.90;;;;;;5019741;28;20471;-71
2022/10/10 06:16:47;;;;;;;13.83;12.70;;;7.50;99.90;;;;;;5019283;28;20465;-67
2022/10/10 06:19:14;;;;;;;15.50;14.10;;;7.60;99.90;;;;;;5018381;28;20997;-68
2022/10/10 06:21:40;;;;;;;17.50;16.00;;;7.60;99.90;;;;;;5019769;28;20471;-68
2022/10/10 06:24:09;;;;;;;18.67;16.77;;;7.70;99.90;;;;;;5021787;28;20457;-70
2022/10/10 06:26:36;;;;;;;18.27;15.30;;;7.70;99.90;;;;;;5018486;28;20511;-70
2022/10/10 06:29:06;;;;;;;29.17;19.50;;;7.80;99.90;;;;;;5021252;28;20500;-68
2022/10/10 06:31:33;;;;;;;17.20;14.87;;;7.90;99.90;;;;;;5022764;28;20530;-70
2022/10/10 06:33:59;;;;;;;16.77;13.30;;;8.00;99.90;;;;;;5022069;28;20591;-66
2022/10/10 06:36:27;;;;;;;14.53;13.30;;;8.00;99.90;;;;;;5022425;28;20464;-67
2022/10/10 06:38:54;;;;;;;16.90;14.20;;;8.20;99.90;;;;;;5021495;28;20460;-68
2022/10/10 06:41:21;;;;;;;15.00;13.53;;;8.20;99.90;;;;;;5018124;28;20934;-68
2022/10/10 06:43:50;;;;;;;16.20;14.60;;;8.30;99.90;;;;;;5020386;28;20488;-70
2022/10/10 06:46:19;;;;;;;15.70;14.07;;;8.40;99.90;;;;;;5016962;28;20551;-68
2022/10/10 06:48:45;;;;;;;15.17;13.33;;;8.50;99.90;;;;;;5021728;28;20971;-66
2022/10/10 06:51:15;;;;;;;15.70;14.07;;;8.60;99.90;;;;;;5020672;28;20976;-67
2022/10/10 06:53:42;;;;;;;13.87;12.83;;;8.60;99.90;;;;;;5013909;28;20583;-70
2022/10/10 06:56:16;;;;;;;14.50;13.40;;;8.70;99.90;;;;;;5019644;28;20910;-67
2022/10/10 06:58:44;;;;;;;13.90;12.70;;;8.80;99.90;;;;;;5023882;28;20464;-68
2022/10/10 07:01:12;;;;;;;17.77;14.20;;;8.90;99.90;;;;;;5017381;28;20465;-70
2022/10/10 07:03:40;;;;;;;16.73;15.03;;;9.00;99.90;;;;;;5020741;28;20488;-68
2022/10/10 07:06:10;;;;;;;17.10;14.77;;;9.10;99.90;;;;;;5026879;28;20465;-67
2022/10/10 07:08:37;;;;;;;16.73;14.20;;;9.10;99.90;;;;;;5026450;28;20990;-69
2022/10/10 07:11:05;;;;;;;16.73;15.00;;;9.20;99.90;;;;;;5021267;28;20469;-66
2022/10/10 07:13:31;;;;;;;15.90;14.50;;;9.20;99.90;;;;;;5020258;28;20947;-67
2022/10/10 07:15:58;;;;;;;17.90;16.23;;;9.30;99.90;;;;;;5020392;28;20505;-69
2022/10/10 07:18:25;;;;;;;17.57;16.17;;;9.40;99.90;;;;;;5023111;28;20449;-67
2022/10/10 07:20:57;;;;;;;15.00;13.73;;;9.50;99.90;;;;;;5021091;28;20476;-69
2022/10/10 07:23:25;;;;;;;23.70;17.00;;;9.50;99.90;;;;;;5022927;28;21470;-67
2022/10/10 07:25:58;;;;;;;17.57;15.97;;;9.50;99.90;;;;;;5022945;28;20457;-67
2022/10/10 07:28:25;;;;;;;16.13;14.90;;;9.50;99.90;;;;;;5025378;28;20484;-68
2022/10/10 07:30:58;;;;;;;17.33;15.57;;;9.60;99.90;;;;;;5022213;28;20464;-68
2022/10/10 07:33:25;;;;;;;19.40;17.20;;;9.60;99.90;;;;;;5023093;28;20489;-69
2022/10/10 07:35:53;;;;;;;16.80;15.30;;;9.70;99.90;;;;;;5024211;28;20826;-69
2022/10/10 07:38:22;;;;;;;16.83;15.10;;;9.70;99.90;;;;;;5025217;28;20551;-67
2022/10/10 07:40:49;;;;;;;16.50;14.83;;;9.80;99.90;;;;;;5024475;28;20552;-70
2022/10/10 07:43:16;;;;;;;18.40;16.43;;;9.80;99.90;;;;;;5023108;28;20476;-70
2022/10/10 07:45:42;;;;;;;18.57;15.30;;;9.80;99.90;;;;;;5026569;28;20879;-67
2022/10/10 07:48:10;;;;;;;16.90;15.27;;;9.90;99.90;;;;;;5025814;28;20493;-68
2022/10/10 07:50:40;;;;;;;19.80;15.47;;;9.90;99.90;;;;;;5026206;28;20990;-70
2022/10/10 07:53:08;;;;;;;18.53;16.60;;;9.90;99.90;;;;;;5025409;28;20488;-67
2022/10/10 07:55:38;;;;;;;22.57;16.37;;;10.00;99.90;;;;;;5021048;28;20473;-67
2022/10/10 07:58:05;;;;;;;18.87;15.17;;;10.10;99.90;;;;;;5027440;28;20567;-70
2022/10/10 08:00:34;;;;;;;21.43;15.10;;;10.20;99.90;;;;;;5017935;28;20468;-70
2022/10/10 08:03:01;;;;;;;19.87;15.33;;;10.30;99.90;;;;;;5024180;28;21037;-68
2022/10/10 08:05:28;;;;;;;19.00;15.87;;;10.40;99.90;;;;;;5026266;28;20464;-67
2022/10/10 08:07:56;;;;;;;18.40;16.37;;;10.50;99.90;;;;;;5029131;28;20472;-67
2022/10/10 08:10:23;;;;;;;19.93;17.00;;;10.70;99.90;;;;;;5026254;28;20457;-70
2022/10/10 08:12:51;;;;;;;18.03;16.23;;;10.90;99.90;;;;;;5018620;28;20489;-70
2022/10/10 08:15:18;;;;;;;16.90;15.70;;;11.10;99.90;;;;;;5018762;28;20465;-70
2022/10/10 08:17:45;;;;;;;19.80;16.90;;;11.30;99.90;;;;;;5020642;28;20467;-67
2022/10/10 08:20:11;;;;;;;17.60;16.10;;;11.50;99.90;;;;;;5020037;28;20520;-67
2022/10/10 08:22:38;;;;;;;18.53;17.03;;;11.60;99.90;;;;;;5023829;28;20461;-70
2022/10/10 08:25:06;;;;;;;21.00;16.97;;;11.80;99.90;;;;;;5025343;28;20469;-68
2022/10/10 08:27:33;;;;;;;19.47;17.23;;;12.00;99.90;;;;;;5024240;28;20456;-70
2022/10/10 08:30:01;;;;;;;20.07;17.67;;;12.10;99.90;;;;;;5018080;28;20470;-71
2022/10/10 08:32:28;;;;;;;17.40;15.57;;;12.20;99.90;;;;;;5016145;28;20464;-67
2022/10/10 08:34:55;;;;;;;24.83;18.13;;;12.40;99.90;;;;;;5019098;28;20465;-67
2022/10/10 08:37:22;;;;;;;17.80;16.27;;;12.50;99.90;;;;;;5021794;28;20902;-67
2022/10/10 08:39:49;;;;;;;18.53;17.13;;;12.70;99.90;;;;;;5022513;28;20461;-68
2022/10/10 08:42:25;;;;;;;18.60;16.57;;;12.90;99.90;;;;;;5021481;28;20460;-67
2022/10/10 08:44:57;;;;;;;17.87;16.57;;;13.10;99.90;;;;;;5020112;28;20468;-68
2022/10/10 08:47:32;;;;;;;18.67;16.87;;;13.30;99.90;;;;;;5019494;28;20457;-71
2022/10/10 08:50:05;;;;;;;23.83;17.40;;;13.40;99.90;;;;;;5023763;28;20460;-67
2022/10/10 08:52:37;;;;;;;20.87;17.20;;;13.50;99.90;;;;;;5024964;28;20496;-67
2022/10/10 08:55:07;;;;;;;18.50;16.57;;;13.50;99.90;;;;;;5023725;28;21017;-67
2022/10/10 08:57:46;;;;;;;25.00;16.00;;;13.70;99.90;;;;;;5019543;28;20967;-70
2022/10/10 09:00:18;;;;;;;26.23;18.47;;;13.80;99.90;;;;;;5023348;28;20583;-67
2022/10/10 09:02:50;;;;;;;22.40;17.97;;;13.90;99.90;;;;;;5016037;28;20478;-66
2022/10/10 09:05:20;;;;;;;24.13;20.90;;;14.10;99.90;;;;;;5019197;28;20468;-66
2022/10/10 09:08:12;;;;;;;22.47;17.80;;;14.30;99.90;;;;;;5017330;28;20469;-69
2022/10/10 09:10:51;;;;;;;19.20;17.47;;;14.40;99.90;;;;;;5020137;28;20822;-66
2022/10/10 09:13:29;;;;;;;18.73;16.73;;;14.70;99.90;;;;;;5016325;28;20542;-66
2022/10/10 09:15:59;;;;;;;17.90;16.50;;;15.00;99.90;;;;;;5019254;28;20985;-67
2022/10/10 09:18:37;;;;;;;18.07;16.37;;;15.40;99.90;;;;;;5020408;28;20511;-67
2022/10/10 09:21:15;;;;;;;18.13;16.60;;;15.70;99.90;;;;;;5022723;28;20865;-67
2022/10/10 09:23:47;;;;;;;18.63;16.87;;;16.10;99.90;;;;;;5018942;28;20461;-67
2022/10/10 09:26:15;;;;;;;25.70;17.33;;;16.20;99.90;;;;;;5017692;28;20465;-67
2022/10/10 09:28:46;;;;;;;19.20;17.70;;;16.40;99.90;;;;;;5019801;28;20546;-67
2022/10/10 09:31:18;;;;;;;19.17;17.40;;;16.60;99.90;;;;;;5017073;28;20461;-67
2022/10/10 09:33:51;;;;;;;19.30;16.80;;;16.60;99.90;;;;;;5018471;28;20883;-68
2022/10/10 09:36:22;;;;;;;17.10;15.77;;;16.80;99.90;;;;;;5018060;28;20468;-69
2022/10/10 09:38:53;;;;;;;17.13;15.63;;;16.90;99.90;;;;;;5020735;28;20469;-68
2022/10/10 09:41:25;;;;;;;17.33;15.77;;;17.00;99.90;;;;;;5019217;28;20825;-67
2022/10/10 09:43:56;;;;;;;22.13;17.83;;;16.90;99.90;;;;;;5021505;28;20479;-69
2022/10/10 09:46:24;;;;;;;18.93;17.00;;;16.70;99.90;;;;;;5020824;28;20548;-67
2022/10/10 09:48:54;;;;;;;20.90;17.80;;;16.60;99.90;;;;;;5021578;28;20461;-66
2022/10/10 09:51:21;;;;;;;18.60;16.60;;;16.80;99.90;;;;;;5023145;28;20888;-66
2022/10/10 09:53:49;;;;;;;21.50;17.10;;;17.10;99.90;;;;;;5019790;28;20504;-67
2022/10/10 09:56:19;;;;;;;23.20;16.20;;;17.70;99.90;;;;;;5023222;28;20461;-67
2022/10/10 09:58:47;;;;;;;17.67;15.93;;;18.80;99.90;;;;;;5018166;28;20462;-70
2022/10/10 10:01:19;;;;;;;26.30;16.20;;;19.30;99.90;;;;;;5021093;28;20465;-68
2022/10/10 10:04:11;;;;;;;18.07;15.97;;;19.40;99.90;;;;;;5015776;28;20564;-67
2022/10/10 10:06:39;;;;;;;25.63;16.10;;;19.20;99.90;;;;;;5015919;28;20461;-65
2022/10/10 10:09:07;;;;;;;17.87;15.53;;;19.80;99.90;;;;;;5019445;28;20487;-66
2022/10/10 10:11:38;;;;;;;20.73;15.53;;;20.40;99.90;;;;;;5020753;28;20465;-66
2022/10/10 10:14:05;;;;;;;16.37;15.03;;;21.10;99.90;;;;;;5020300;28;20512;-66
2022/10/10 10:16:36;;;;;;;17.37;15.37;;;20.90;99.90;;;;;;5022586;28;20469;-67
2022/10/10 10:19:06;;;;;;;19.00;16.90;;;20.50;99.90;;;;;;5016830;28;20492;-65
2022/10/10 10:21:46;;;;;;;17.27;15.00;;;20.70;99.90;;;;;;5017467;28;20561;-66
2022/10/10 10:24:21;;;;;;;16.60;15.10;;;20.40;99.90;;;;;;5019352;28;20460;-67
2022/10/10 10:26:48;;;;;;;23.03;15.33;;;20.90;99.90;;;;;;5013275;28;20490;-65
2022/10/10 10:29:29;;;;;;;16.80;15.20;;;20.90;99.90;;;;;;5019326;28;20481;-66
2022/10/10 10:32:05;;;;;;;16.27;14.93;;;21.10;99.90;;;;;;5018801;28;20468;-70
2022/10/10 10:34:51;;;;;;;19.73;15.50;;;21.60;99.90;;;;;;5019565;28;20499;-67
2022/10/10 10:37:22;;;;;;;17.07;15.73;;;22.40;99.90;;;;;;5019711;28;20467;-69
2022/10/10 10:40:09;;;;;;;16.70;15.50;;;22.30;99.90;;;;;;5022191;28;20999;-67
2022/10/10 10:42:53;;;;;;;16.87;15.37;;;22.10;99.90;;;;;;5018717;28;20468;-66
2022/10/10 10:45:30;;;;;;;25.17;17.00;;;22.10;99.90;;;;;;5018087;28;20468;-66
2022/10/10 10:48:08;;;;;;;18.60;16.90;;;22.50;99.90;;;;;;5020723;28;20520;-66
2022/10/10 10:50:44;;;;;;;16.90;15.50;;;23.10;99.90;;;;;;5014210;28;20476;-66
2022/10/10 10:53:19;;;;;;;16.83;15.03;;;22.40;99.90;;;;;;5019268;28;20457;-66
2022/10/10 10:55:50;;;;;;;17.43;16.10;;;22.70;99.90;;;;;;5016494;28;20967;-66
2022/10/10 10:58:41;;;;;;;16.00;14.90;;;22.70;99.90;;;;;;5015612;28;20468;-68
2022/10/10 11:01:15;;;;;;;17.50;15.80;;;22.70;99.90;;;;;;5013334;28;20464;-66
2022/10/10 11:03:51;;;;;;;17.73;15.90;;;22.00;99.90;;;;;;5019361;28;20480;-66
2022/10/10 11:06:39;;;;;;;18.07;15.37;;;21.60;99.90;;;;;;5016829;28;20463;-67
2022/10/10 11:09:13;;;;;;;17.37;15.60;;;22.10;99.90;;;;;;5012840;28;20891;-65
2022/10/10 11:11:57;;;;;;;16.67;15.33;;;22.00;99.90;;;;;;5013944;28;20476;-66
2022/10/10 11:14:35;;;;;;;17.17;15.77;;;21.80;99.90;;;;;;5018645;28;20482;-69
2022/10/10 11:17:12;;;;;;;17.07;15.87;;;21.70;99.90;;;;;;5018717;28;20469;-66
2022/10/10 11:19:42;;;;;;;16.70;15.10;;;21.80;99.90;;;;;;5015306;28;20537;-66
2022/10/10 11:22:16;;;;;;;17.30;15.83;;;21.50;99.90;;;;;;5016243;28;20470;-66
2022/10/10 11:24:47;;;;;;;17.50;15.70;;;21.40;99.90;;;;;;5016513;28;20778;-66
2022/10/10 11:27:18;;;;;;;16.50;14.97;;;21.20;99.90;;;;;;5022453;28;20825;-66
2022/10/10 11:30:04;;;;;;;16.43;15.23;;;21.50;99.90;;;;;;5020679;28;20473;-65
2022/10/10 11:32:36;;;;;;;17.13;15.60;;;21.40;99.90;;;;;;5018353;28;20461;-66
2022/10/10 11:35:16;;;;;;;17.10;15.47;;;21.40;99.90;;;;;;5018871;28;20918;-66
2022/10/10 11:37:51;;;;;;;17.70;15.80;;;21.10;99.90;;;;;;5012534;28;20461;-67
2022/10/10 11:40:31;;;;;;;17.50;15.77;;;21.10;99.90;;;;;;5015945;28;20465;-66
2022/10/10 11:43:02;;;;;;;17.07;15.87;;;21.30;99.90;;;;;;5013251;28;20476;-66
2022/10/10 11:45:32;;;;;;;17.17;15.70;;;21.30;99.90;;;;;;5022173;28;20538;-66
2022/10/10 11:48:10;;;;;;;17.30;15.57;;;21.30;99.90;;;;;;5020785;28;20563;-67
2022/10/10 11:50:41;;;;;;;17.23;15.43;;;21.40;99.90;;;;;;5021760;28;20868;-66
2022/10/10 11:53:17;;;;;;;16.60;14.90;;;21.50;99.90;;;;;;5022933;28;20887;-66
2022/10/10 11:55:51;;;;;;;16.97;15.70;;;21.80;99.90;;;;;;5023384;28;21025;-67
2022/10/10 11:58:27;;;;;;;17.07;15.33;;;21.70;99.90;;;;;;5021688;28;21017;-66
2022/10/10 12:00:57;;;;;;;16.40;15.10;;;21.80;99.90;;;;;;5020422;28;20488;-67
2022/10/10 12:03:25;;;;;;;16.50;15.30;;;21.50;99.90;;;;;;5020129;28;20479;-67
2022/10/10 12:05:59;;;;;;;16.13;15.03;;;21.50;99.90;;;;;;5020853;28;20467;-65
2022/10/10 12:08:33;;;;;;;16.83;15.50;;;21.60;99.90;;;;;;5025257;28;20462;-66
2022/10/10 12:11:06;;;;;;;16.93;15.20;;;21.60;99.90;;;;;;5023161;28;20799;-66
2022/10/10 12:13:36;;;;;;;17.93;15.87;;;21.60;99.90;;;;;;5021839;28;20465;-66
2022/10/10 12:16:07;;;;;;;17.83;16.20;;;21.70;99.90;;;;;;5017335;28;20489;-67
2022/10/10 12:18:40;;;;;;;17.27;15.93;;;21.90;99.90;;;;;;5017069;28;20790;-69
2022/10/10 12:21:10;;;;;;;16.10;14.80;;;21.70;99.90;;;;;;5020415;28;20468;-67
2022/10/10 12:23:39;;;;;;;16.00;14.53;;;21.70;99.90;;;;;;5022975;28;20467;-66
2022/10/10 12:26:06;;;;;;;17.80;15.23;;;21.70;99.90;;;;;;5019677;28;20468;-67
2022/10/10 12:28:57;;;;;;;17.10;15.80;;;21.60;99.90;;;;;;5018934;28;20484;-67
2022/10/10 12:31:37;;;;;;;17.17;15.43;;;21.80;99.90;;;;;;5019343;28;20564;-66
2022/10/10 12:34:41;;;;;;;16.73;15.23;;;22.20;99.90;;;;;;5015869;28;20487;-66
2022/10/10 12:37:22;;;;;;;19.27;15.00;;;22.30;99.90;;;;;;5022498;28;20543;-66
2022/10/10 12:40:17;;;;;;;17.53;15.87;;;22.90;99.90;;;;;;5019754;28;20552;-67
2022/10/10 12:43:00;;;;;;;17.80;14.73;;;23.70;99.90;;;;;;5020563;28;20469;-68
2022/10/10 12:46:08;;;;;;;26.07;16.30;;;23.40;99.90;;;;;;5022974;28;20465;-69
2022/10/10 12:48:36;;;;;;;19.07;15.27;;;23.10;99.90;;;;;;5018480;28;20555;-66
2022/10/10 12:51:03;;;;;;;15.47;14.37;;;23.80;99.90;;;;;;5022889;28;20552;-67